sensor_id;sensor_type;location;lat;lon;timestamp;temperature;humidity
28947;DHT22;16052;50.930;5.326;2022-07-23T00:00:49;21.60;74.90
28947;DHT22;16052;50.930;5.326;2022-07-23T00:03:14;21.20;86.70
28947;DHT22;16052;50.930;5.326;2022-07-23T00:05:40;20.80;93.60
28947;DHT22;16052;50.930;5.326;2022-07-23T00:08:06;21.00;93.90
28947;DHT22;16052;50.930;5.326;2022-07-23T00:10:33;20.70;95.60
28947;DHT22;16052;50.930;5.326;2022-07-23T00:12:58;20.80;95.90
28947;DHT22;16052;50.930;5.326;2022-07-23T00:15:24;20.90;94.10
28947;DHT22;16052;50.930;5.326;2022-07-23T00:17:50;20.80;95.30
28947;DHT22;16052;50.930;5.326;2022-07-23T00:20:16;21.00;94.90
28947;DHT22;16052;50.930;5.326;2022-07-23T00:22:48;21.30;91.40
28947;DHT22;16052;50.930;5.326;2022-07-23T00:25:14;21.50;86.70
28947;DHT22;16052;50.930;5.326;2022-07-23T00:27:39;21.60;82.90
28947;DHT22;16052;50.930;5.326;2022-07-23T00:30:05;21.60;82.80
28947;DHT22;16052;50.930;5.326;2022-07-23T00:32:31;21.60;82.70
28947;DHT22;16052;50.930;5.326;2022-07-23T00:34:57;21.40;85.20
28947;DHT22;16052;50.930;5.326;2022-07-23T00:37:22;21.50;83.70
28947;DHT22;16052;50.930;5.326;2022-07-23T00:39:48;21.30;85.50
28947;DHT22;16052;50.930;5.326;2022-07-23T00:42:14;21.30;84.20
28947;DHT22;16052;50.930;5.326;2022-07-23T00:44:39;21.30;82.80
28947;DHT22;16052;50.930;5.326;2022-07-23T00:47:05;21.30;82.50
28947;DHT22;16052;50.930;5.326;2022-07-23T00:49:31;21.30;82.90
28947;DHT22;16052;50.930;5.326;2022-07-23T00:52:00;21.20;84.10
28947;DHT22;16052;50.930;5.326;2022-07-23T00:54:27;21.00;88.30
28947;DHT22;16052;50.930;5.326;2022-07-23T00:56:53;21.10;88.40
28947;DHT22;16052;50.930;5.326;2022-07-23T00:59:19;20.90;90.10
28947;DHT22;16052;50.930;5.326;2022-07-23T01:01:45;20.90;91.10
28947;DHT22;16052;50.930;5.326;2022-07-23T01:04:13;21.00;89.30
28947;DHT22;16052;50.930;5.326;2022-07-23T01:06:40;21.10;85.90
28947;DHT22;16052;50.930;5.326;2022-07-23T01:09:06;21.20;81.90
28947;DHT22;16052;50.930;5.326;2022-07-23T01:11:36;21.20;84.40
28947;DHT22;16052;50.930;5.326;2022-07-23T01:14:12;21.10;83.20
28947;DHT22;16052;50.930;5.326;2022-07-23T01:16:39;21.10;83.30
28947;DHT22;16052;50.930;5.326;2022-07-23T01:19:04;21.10;85.10
28947;DHT22;16052;50.930;5.326;2022-07-23T01:21:34;21.00;86.90
28947;DHT22;16052;50.930;5.326;2022-07-23T01:24:01;21.00;85.10
28947;DHT22;16052;50.930;5.326;2022-07-23T01:26:26;20.70;90.20
28947;DHT22;16052;50.930;5.326;2022-07-23T01:28:52;20.70;91.20
28947;DHT22;16052;50.930;5.326;2022-07-23T01:31:18;20.80;89.60
28947;DHT22;16052;50.930;5.326;2022-07-23T01:33:44;20.80;90.00
28947;DHT22;16052;50.930;5.326;2022-07-23T01:36:10;20.70;90.50
28947;DHT22;16052;50.930;5.326;2022-07-23T01:38:35;20.70;90.50
28947;DHT22;16052;50.930;5.326;2022-07-23T01:41:01;20.70;90.00
28947;DHT22;16052;50.930;5.326;2022-07-23T01:43:27;20.70;89.90
28947;DHT22;16052;50.930;5.326;2022-07-23T01:45:53;20.80;87.00
28947;DHT22;16052;50.930;5.326;2022-07-23T01:48:18;20.80;83.50
28947;DHT22;16052;50.930;5.326;2022-07-23T01:50:46;20.70;89.70
28947;DHT22;16052;50.930;5.326;2022-07-23T01:53:12;20.50;90.40
28947;DHT22;16052;50.930;5.326;2022-07-23T01:55:38;20.60;88.90
28947;DHT22;16052;50.930;5.326;2022-07-23T01:58:03;20.60;90.30
28947;DHT22;16052;50.930;5.326;2022-07-23T02:00:29;20.60;90.80
28947;DHT22;16052;50.930;5.326;2022-07-23T02:02:54;20.60;88.10
28947;DHT22;16052;50.930;5.326;2022-07-23T02:05:20;20.70;87.80
28947;DHT22;16052;50.930;5.326;2022-07-23T02:07:46;20.70;89.20
28947;DHT22;16052;50.930;5.326;2022-07-23T02:10:11;20.70;88.20
28947;DHT22;16052;50.930;5.326;2022-07-23T02:12:37;20.60;89.80
28947;DHT22;16052;50.930;5.326;2022-07-23T02:15:03;20.60;89.90
28947;DHT22;16052;50.930;5.326;2022-07-23T02:17:29;20.60;90.00
28947;DHT22;16052;50.930;5.326;2022-07-23T02:19:54;20.50;89.30
28947;DHT22;16052;50.930;5.326;2022-07-23T02:22:20;20.40;92.40
28947;DHT22;16052;50.930;5.326;2022-07-23T02:24:45;20.50;91.30
28947;DHT22;16052;50.930;5.326;2022-07-23T02:27:11;20.40;91.50
28947;DHT22;16052;50.930;5.326;2022-07-23T02:29:37;20.40;91.70
28947;DHT22;16052;50.930;5.326;2022-07-23T02:32:02;20.50;91.20
28947;DHT22;16052;50.930;5.326;2022-07-23T02:34:28;20.40;90.90
28947;DHT22;16052;50.930;5.326;2022-07-23T02:36:54;20.50;91.30
28947;DHT22;16052;50.930;5.326;2022-07-23T02:39:19;20.30;92.60
28947;DHT22;16052;50.930;5.326;2022-07-23T02:41:45;20.30;92.40
28947;DHT22;16052;50.930;5.326;2022-07-23T02:44:10;20.10;95.20
28947;DHT22;16052;50.930;5.326;2022-07-23T02:46:36;20.30;92.90
28947;DHT22;16052;50.930;5.326;2022-07-23T02:49:02;20.30;92.70
28947;DHT22;16052;50.930;5.326;2022-07-23T02:51:30;20.20;93.20
28947;DHT22;16052;50.930;5.326;2022-07-23T02:53:55;20.20;93.50
28947;DHT22;16052;50.930;5.326;2022-07-23T02:56:21;20.20;93.00
28947;DHT22;16052;50.930;5.326;2022-07-23T02:58:47;20.20;92.70
28947;DHT22;16052;50.930;5.326;2022-07-23T03:01:12;20.30;92.50
28947;DHT22;16052;50.930;5.326;2022-07-23T03:03:38;20.30;91.90
28947;DHT22;16052;50.930;5.326;2022-07-23T03:06:04;20.30;91.00
28947;DHT22;16052;50.930;5.326;2022-07-23T03:08:29;20.40;90.00
28947;DHT22;16052;50.930;5.326;2022-07-23T03:10:55;20.30;89.10
28947;DHT22;16052;50.930;5.326;2022-07-23T03:13:20;20.30;91.30
28947;DHT22;16052;50.930;5.326;2022-07-23T03:15:46;20.30;90.80
28947;DHT22;16052;50.930;5.326;2022-07-23T03:18:12;20.20;90.50
28947;DHT22;16052;50.930;5.326;2022-07-23T03:20:38;20.20;91.40
28947;DHT22;16052;50.930;5.326;2022-07-23T03:23:03;20.10;91.80
28947;DHT22;16052;50.930;5.326;2022-07-23T03:25:29;20.00;93.70
28947;DHT22;16052;50.930;5.326;2022-07-23T03:27:54;20.10;92.90
28947;DHT22;16052;50.930;5.326;2022-07-23T03:30:21;20.10;92.40
28947;DHT22;16052;50.930;5.326;2022-07-23T03:32:47;20.10;92.70
28947;DHT22;16052;50.930;5.326;2022-07-23T03:35:12;20.20;90.60
28947;DHT22;16052;50.930;5.326;2022-07-23T03:37:38;20.30;88.80
28947;DHT22;16052;50.930;5.326;2022-07-23T03:40:04;20.20;88.90
28947;DHT22;16052;50.930;5.326;2022-07-23T03:42:30;20.20;90.10
28947;DHT22;16052;50.930;5.326;2022-07-23T03:44:55;20.20;87.80
28947;DHT22;16052;50.930;5.326;2022-07-23T03:47:21;20.10;90.90
28947;DHT22;16052;50.930;5.326;2022-07-23T03:49:48;19.80;94.00
28947;DHT22;16052;50.930;5.326;2022-07-23T03:52:13;19.40;97.40
28947;DHT22;16052;50.930;5.326;2022-07-23T03:54:39;19.40;99.50
28947;DHT22;16052;50.930;5.326;2022-07-23T03:57:05;19.40;99.90
28947;DHT22;16052;50.930;5.326;2022-07-23T03:59:30;19.70;97.40
28947;DHT22;16052;50.930;5.326;2022-07-23T04:01:56;19.40;99.20
28947;DHT22;16052;50.930;5.326;2022-07-23T04:04:22;19.40;99.90
28947;DHT22;16052;50.930;5.326;2022-07-23T04:06:47;19.20;99.90
28947;DHT22;16052;50.930;5.326;2022-07-23T04:09:13;19.10;99.90
28947;DHT22;16052;50.930;5.326;2022-07-23T04:11:39;19.10;99.90
28947;DHT22;16052;50.930;5.326;2022-07-23T04:14:04;19.00;99.90
28947;DHT22;16052;50.930;5.326;2022-07-23T04:16:30;19.10;99.90
28947;DHT22;16052;50.930;5.326;2022-07-23T04:18:57;19.30;99.90
28947;DHT22;16052;50.930;5.326;2022-07-23T04:21:24;19.40;99.90
28947;DHT22;16052;50.930;5.326;2022-07-23T04:23:49;19.40;99.90
28947;DHT22;16052;50.930;5.326;2022-07-23T04:26:15;19.50;99.40
28947;DHT22;16052;50.930;5.326;2022-07-23T04:28:41;19.50;98.60
28947;DHT22;16052;50.930;5.326;2022-07-23T04:31:07;19.50;99.40
28947;DHT22;16052;50.930;5.326;2022-07-23T04:33:33;19.50;99.30
28947;DHT22;16052;50.930;5.326;2022-07-23T04:35:58;19.30;99.90
28947;DHT22;16052;50.930;5.326;2022-07-23T04:38:24;19.20;99.90
28947;DHT22;16052;50.930;5.326;2022-07-23T04:40:50;19.50;99.20
28947;DHT22;16052;50.930;5.326;2022-07-23T04:43:15;19.40;98.90
28947;DHT22;16052;50.930;5.326;2022-07-23T04:45:41;19.40;99.00
28947;DHT22;16052;50.930;5.326;2022-07-23T04:48:06;19.30;99.90
28947;DHT22;16052;50.930;5.326;2022-07-23T04:50:32;19.40;99.90
28947;DHT22;16052;50.930;5.326;2022-07-23T04:52:58;19.40;99.70
28947;DHT22;16052;50.930;5.326;2022-07-23T04:55:24;19.40;99.90
28947;DHT22;16052;50.930;5.326;2022-07-23T04:57:49;19.60;98.00
28947;DHT22;16052;50.930;5.326;2022-07-23T05:00:15;19.50;98.10
28947;DHT22;16052;50.930;5.326;2022-07-23T05:02:41;19.70;96.10
28947;DHT22;16052;50.930;5.326;2022-07-23T05:05:07;19.60;96.20
28947;DHT22;16052;50.930;5.326;2022-07-23T05:07:33;19.50;97.40
28947;DHT22;16052;50.930;5.326;2022-07-23T05:09:58;19.60;97.10
28947;DHT22;16052;50.930;5.326;2022-07-23T05:12:24;19.60;96.90
28947;DHT22;16052;50.930;5.326;2022-07-23T05:14:49;19.40;97.70
28947;DHT22;16052;50.930;5.326;2022-07-23T05:17:15;19.30;99.90
28947;DHT22;16052;50.930;5.326;2022-07-23T05:19:41;19.30;99.90
28947;DHT22;16052;50.930;5.326;2022-07-23T05:22:07;19.40;99.40
28947;DHT22;16052;50.930;5.326;2022-07-23T05:24:32;19.50;99.30
28947;DHT22;16052;50.930;5.326;2022-07-23T05:26:58;19.60;96.50
28947;DHT22;16052;50.930;5.326;2022-07-23T05:29:23;19.70;95.20
28947;DHT22;16052;50.930;5.326;2022-07-23T05:31:49;19.50;97.40
28947;DHT22;16052;50.930;5.326;2022-07-23T05:34:15;19.70;96.30
28947;DHT22;16052;50.930;5.326;2022-07-23T05:36:40;19.70;95.80
28947;DHT22;16052;50.930;5.326;2022-07-23T05:39:06;19.80;93.50
28947;DHT22;16052;50.930;5.326;2022-07-23T05:41:32;19.80;93.90
28947;DHT22;16052;50.930;5.326;2022-07-23T05:43:57;19.80;93.80
28947;DHT22;16052;50.930;5.326;2022-07-23T05:46:23;19.80;95.00
28947;DHT22;16052;50.930;5.326;2022-07-23T05:48:48;19.70;94.50
28947;DHT22;16052;50.930;5.326;2022-07-23T05:51:24;19.70;95.70
28947;DHT22;16052;50.930;5.326;2022-07-23T05:53:50;19.70;94.90
28947;DHT22;16052;50.930;5.326;2022-07-23T05:56:16;20.00;91.80
28947;DHT22;16052;50.930;5.326;2022-07-23T05:58:42;20.10;90.40
28947;DHT22;16052;50.930;5.326;2022-07-23T06:01:08;20.10;91.20
28947;DHT22;16052;50.930;5.326;2022-07-23T06:03:34;20.20;89.00
28947;DHT22;16052;50.930;5.326;2022-07-23T06:06:00;20.20;88.20
28947;DHT22;16052;50.930;5.326;2022-07-23T06:08:25;20.10;90.60
28947;DHT22;16052;50.930;5.326;2022-07-23T06:10:51;20.20;88.70
28947;DHT22;16052;50.930;5.326;2022-07-23T06:13:19;20.40;86.20
28947;DHT22;16052;50.930;5.326;2022-07-23T06:15:45;20.20;89.40
28947;DHT22;16052;50.930;5.326;2022-07-23T06:18:11;20.10;90.50
28947;DHT22;16052;50.930;5.326;2022-07-23T06:20:37;20.20;90.50
28947;DHT22;16052;50.930;5.326;2022-07-23T06:23:03;20.30;88.00
28947;DHT22;16052;50.930;5.326;2022-07-23T06:25:28;20.50;80.10
28947;DHT22;16052;50.930;5.326;2022-07-23T06:27:54;20.60;79.10
28947;DHT22;16052;50.930;5.326;2022-07-23T06:30:20;20.70;77.30
28947;DHT22;16052;50.930;5.326;2022-07-23T06:32:46;20.80;76.40
28947;DHT22;16052;50.930;5.326;2022-07-23T06:35:12;20.70;76.50
28947;DHT22;16052;50.930;5.326;2022-07-23T06:37:38;20.80;76.40
28947;DHT22;16052;50.930;5.326;2022-07-23T06:40:04;20.90;72.50
28947;DHT22;16052;50.930;5.326;2022-07-23T06:42:30;20.80;74.90
28947;DHT22;16052;50.930;5.326;2022-07-23T06:44:56;20.60;83.10
28947;DHT22;16052;50.930;5.326;2022-07-23T06:47:21;20.50;87.90
28947;DHT22;16052;50.930;5.326;2022-07-23T06:49:47;20.60;86.80
28947;DHT22;16052;50.930;5.326;2022-07-23T06:52:12;20.80;78.30
28947;DHT22;16052;50.930;5.326;2022-07-23T06:54:38;21.10;73.30
28947;DHT22;16052;50.930;5.326;2022-07-23T06:57:04;20.90;72.50
28947;DHT22;16052;50.930;5.326;2022-07-23T06:59:30;21.00;78.40
28947;DHT22;16052;50.930;5.326;2022-07-23T07:01:55;21.10;76.10
28947;DHT22;16052;50.930;5.326;2022-07-23T07:04:22;21.10;74.50
28947;DHT22;16052;50.930;5.326;2022-07-23T07:06:47;21.10;73.10
28947;DHT22;16052;50.930;5.326;2022-07-23T07:09:13;21.10;70.20
28947;DHT22;16052;50.930;5.326;2022-07-23T07:11:38;21.10;71.90
28947;DHT22;16052;50.930;5.326;2022-07-23T07:14:04;21.00;74.00
28947;DHT22;16052;50.930;5.326;2022-07-23T07:16:30;21.10;78.20
28947;DHT22;16052;50.930;5.326;2022-07-23T07:18:55;21.10;77.50
28947;DHT22;16052;50.930;5.326;2022-07-23T07:21:21;21.20;73.70
28947;DHT22;16052;50.930;5.326;2022-07-23T07:23:47;21.20;68.40
28947;DHT22;16052;50.930;5.326;2022-07-23T07:26:12;21.20;72.60
28947;DHT22;16052;50.930;5.326;2022-07-23T07:28:38;21.60;60.60
28947;DHT22;16052;50.930;5.326;2022-07-23T07:31:04;21.60;59.60
28947;DHT22;16052;50.930;5.326;2022-07-23T07:33:29;21.60;62.10
28947;DHT22;16052;50.930;5.326;2022-07-23T07:35:55;21.70;57.90
28947;DHT22;16052;50.930;5.326;2022-07-23T07:38:21;21.70;59.30
28947;DHT22;16052;50.930;5.326;2022-07-23T07:40:46;21.70;57.40
28947;DHT22;16052;50.930;5.326;2022-07-23T07:43:12;21.70;57.80
28947;DHT22;16052;50.930;5.326;2022-07-23T07:45:38;21.80;56.20
28947;DHT22;16052;50.930;5.326;2022-07-23T07:48:04;21.90;56.50
28947;DHT22;16052;50.930;5.326;2022-07-23T07:50:30;21.90;51.70
28947;DHT22;16052;50.930;5.326;2022-07-23T07:52:56;22.00;50.40
28947;DHT22;16052;50.930;5.326;2022-07-23T07:55:21;22.10;44.80
28947;DHT22;16052;50.930;5.326;2022-07-23T07:57:47;22.10;42.90
28947;DHT22;16052;50.930;5.326;2022-07-23T08:00:13;22.20;34.30
28947;DHT22;16052;50.930;5.326;2022-07-23T08:02:48;22.20;37.20
28947;DHT22;16052;50.930;5.326;2022-07-23T08:05:14;22.20;38.70
28947;DHT22;16052;50.930;5.326;2022-07-23T08:07:40;22.30;33.00
28947;DHT22;16052;50.930;5.326;2022-07-23T08:10:09;22.40;33.40
28947;DHT22;16052;50.930;5.326;2022-07-23T08:12:43;22.50;31.20
28947;DHT22;16052;50.930;5.326;2022-07-23T08:15:11;22.60;24.00
28947;DHT22;16052;50.930;5.326;2022-07-23T08:17:37;22.60;20.00
28947;DHT22;16052;50.930;5.326;2022-07-23T08:20:06;22.60;17.50
28947;DHT22;16052;50.930;5.326;2022-07-23T08:22:52;22.60;22.60
28947;DHT22;16052;50.930;5.326;2022-07-23T08:25:29;22.70;20.90
28947;DHT22;16052;50.930;5.326;2022-07-23T08:27:56;22.70;19.50
28947;DHT22;16052;50.930;5.326;2022-07-23T08:30:22;22.70;17.10
28947;DHT22;16052;50.930;5.326;2022-07-23T08:35:43;22.80;19.40
28947;DHT22;16052;50.930;5.326;2022-07-23T08:38:11;22.80;24.20
28947;DHT22;16052;50.930;5.326;2022-07-23T08:40:41;22.70;17.30
28947;DHT22;16052;50.930;5.326;2022-07-23T08:43:09;22.60;21.00
28947;DHT22;16052;50.930;5.326;2022-07-23T08:45:37;22.60;22.10
28947;DHT22;16052;50.930;5.326;2022-07-23T08:48:06;22.70;18.70
28947;DHT22;16052;50.930;5.326;2022-07-23T08:50:32;22.80;15.00
28947;DHT22;16052;50.930;5.326;2022-07-23T08:53:00;22.90;13.30
28947;DHT22;16052;50.930;5.326;2022-07-23T08:55:26;23.00;10.80
28947;DHT22;16052;50.930;5.326;2022-07-23T08:57:52;23.10;10.40
28947;DHT22;16052;50.930;5.326;2022-07-23T09:00:21;23.30;15.20
28947;DHT22;16052;50.930;5.326;2022-07-23T09:02:47;23.40;9.90
28947;DHT22;16052;50.930;5.326;2022-07-23T09:05:13;23.50;8.30
28947;DHT22;16052;50.930;5.326;2022-07-23T09:10:52;23.50;11.80
28947;DHT22;16052;50.930;5.326;2022-07-23T09:16:17;23.40;1.00
28947;DHT22;16052;50.930;5.326;2022-07-23T09:18:48;23.20;1.00
28947;DHT22;16052;50.930;5.326;2022-07-23T09:29:07;23.20;16.00
28947;DHT22;16052;50.930;5.326;2022-07-23T09:36:55;23.50;1.00
28947;DHT22;16052;50.930;5.326;2022-07-23T09:39:28;23.70;1.00
28947;DHT22;16052;50.930;5.326;2022-07-23T09:41:54;23.80;1.00
28947;DHT22;16052;50.930;5.326;2022-07-23T09:44:20;24.00;1.00
28947;DHT22;16052;50.930;5.326;2022-07-23T09:46:48;24.00;1.00
28947;DHT22;16052;50.930;5.326;2022-07-23T09:49:17;24.20;1.00
28947;DHT22;16052;50.930;5.326;2022-07-23T09:51:49;24.10;1.00
28947;DHT22;16052;50.930;5.326;2022-07-23T09:54:28;24.10;1.00
28947;DHT22;16052;50.930;5.326;2022-07-23T09:56:57;24.20;1.00
28947;DHT22;16052;50.930;5.326;2022-07-23T09:59:26;24.30;1.00
28947;DHT22;16052;50.930;5.326;2022-07-23T10:01:54;24.40;1.00
28947;DHT22;16052;50.930;5.326;2022-07-23T10:04:23;24.40;1.00
28947;DHT22;16052;50.930;5.326;2022-07-23T10:06:52;24.30;1.00
28947;DHT22;16052;50.930;5.326;2022-07-23T10:09:23;24.30;1.00
28947;DHT22;16052;50.930;5.326;2022-07-23T10:11:49;24.30;1.00
28947;DHT22;16052;50.930;5.326;2022-07-23T10:14:16;24.40;1.00
28947;DHT22;16052;50.930;5.326;2022-07-23T10:16:42;24.50;1.00
28947;DHT22;16052;50.930;5.326;2022-07-23T10:19:09;24.50;1.00
28947;DHT22;16052;50.930;5.326;2022-07-23T10:21:41;24.70;1.00
28947;DHT22;16052;50.930;5.326;2022-07-23T10:24:20;24.90;1.00
28947;DHT22;16052;50.930;5.326;2022-07-23T10:29:58;25.10;1.00
28947;DHT22;16052;50.930;5.326;2022-07-23T10:35:44;25.10;1.00
28947;DHT22;16052;50.930;5.326;2022-07-23T10:38:24;25.10;1.00
28947;DHT22;16052;50.930;5.326;2022-07-23T10:41:02;25.20;1.00
28947;DHT22;16052;50.930;5.326;2022-07-23T10:43:28;25.30;1.00
28947;DHT22;16052;50.930;5.326;2022-07-23T10:45:55;25.30;1.00
28947;DHT22;16052;50.930;5.326;2022-07-23T10:48:23;25.40;1.00
28947;DHT22;16052;50.930;5.326;2022-07-23T10:53:52;25.70;1.00
28947;DHT22;16052;50.930;5.326;2022-07-23T10:56:50;25.70;1.00
28947;DHT22;16052;50.930;5.326;2022-07-23T10:59:16;25.90;1.00
28947;DHT22;16052;50.930;5.326;2022-07-23T11:01:41;26.00;99.90
28947;DHT22;16052;50.930;5.326;2022-07-23T11:04:07;25.90;99.90
28947;DHT22;16052;50.930;5.326;2022-07-23T11:09:32;26.00;99.90
28947;DHT22;16052;50.930;5.326;2022-07-23T11:15:09;26.10;99.90
28947;DHT22;16052;50.930;5.326;2022-07-23T11:18:20;26.20;99.90
28947;DHT22;16052;50.930;5.326;2022-07-23T11:20:22;26.30;99.90
28947;DHT22;16052;50.930;5.326;2022-07-23T11:22:51;26.60;99.90
28947;DHT22;16052;50.930;5.326;2022-07-23T11:28:07;26.70;99.90
28947;DHT22;16052;50.930;5.326;2022-07-23T11:30:37;26.40;99.90
28947;DHT22;16052;50.930;5.326;2022-07-23T11:35:32;26.00;99.90
28947;DHT22;16052;50.930;5.326;2022-07-23T11:38:24;26.00;99.90
28947;DHT22;16052;50.930;5.326;2022-07-23T11:40:53;26.20;99.90
28947;DHT22;16052;50.930;5.326;2022-07-23T11:43:20;26.50;99.90
28947;DHT22;16052;50.930;5.326;2022-07-23T11:45:52;26.60;99.90
28947;DHT22;16052;50.930;5.326;2022-07-23T11:48:24;26.70;99.90
28947;DHT22;16052;50.930;5.326;2022-07-23T11:50:51;26.60;53.50
28947;DHT22;16052;50.930;5.326;2022-07-23T11:53:28;26.70;74.90
28947;DHT22;16052;50.930;5.326;2022-07-23T11:56:02;26.70;84.90
28947;DHT22;16052;50.930;5.326;2022-07-23T11:58:27;26.90;99.90
28947;DHT22;16052;50.930;5.326;2022-07-23T12:00:55;27.10;72.40
28947;DHT22;16052;50.930;5.326;2022-07-23T12:03:21;27.20;1.00
28947;DHT22;16052;50.930;5.326;2022-07-23T12:05:46;27.20;99.90
28947;DHT22;16052;50.930;5.326;2022-07-23T12:08:12;27.10;99.90
28947;DHT22;16052;50.930;5.326;2022-07-23T12:10:40;27.20;99.90
28947;DHT22;16052;50.930;5.326;2022-07-23T12:13:16;27.30;99.90
28947;DHT22;16052;50.930;5.326;2022-07-23T12:15:45;27.50;99.90
28947;DHT22;16052;50.930;5.326;2022-07-23T12:18:14;27.50;92.30
28947;DHT22;16052;50.930;5.326;2022-07-23T12:20:45;27.50;34.30
28947;DHT22;16052;50.930;5.326;2022-07-23T12:23:13;27.10;1.00
28947;DHT22;16052;50.930;5.326;2022-07-23T12:25:41;26.80;1.00
28947;DHT22;16052;50.930;5.326;2022-07-23T12:30:39;26.70;31.60
28947;DHT22;16052;50.930;5.326;2022-07-23T12:33:06;26.60;53.20
28947;DHT22;16052;50.930;5.326;2022-07-23T12:35:41;26.70;99.90
28947;DHT22;16052;50.930;5.326;2022-07-23T12:38:10;26.90;99.90
28947;DHT22;16052;50.930;5.326;2022-07-23T12:40:46;27.20;99.90
28947;DHT22;16052;50.930;5.326;2022-07-23T12:43:32;27.50;99.90
28947;DHT22;16052;50.930;5.326;2022-07-23T12:46:09;27.70;93.90
28947;DHT22;16052;50.930;5.326;2022-07-23T12:48:49;27.00;17.90
28947;DHT22;16052;50.930;5.326;2022-07-23T12:53:47;26.80;99.90
28947;DHT22;16052;50.930;5.326;2022-07-23T12:56:16;26.90;99.90
28947;DHT22;16052;50.930;5.326;2022-07-23T13:03:55;26.50;99.90
28947;DHT22;16052;50.930;5.326;2022-07-23T13:06:21;26.40;99.90
28947;DHT22;16052;50.930;5.326;2022-07-23T13:08:47;26.30;99.90
28947;DHT22;16052;50.930;5.326;2022-07-23T13:11:13;26.40;99.90
28947;DHT22;16052;50.930;5.326;2022-07-23T13:13:38;26.60;99.90
28947;DHT22;16052;50.930;5.326;2022-07-23T13:16:04;26.60;99.90
28947;DHT22;16052;50.930;5.326;2022-07-23T13:18:30;26.50;99.90
28947;DHT22;16052;50.930;5.326;2022-07-23T13:20:57;26.30;99.90
28947;DHT22;16052;50.930;5.326;2022-07-23T13:23:23;26.40;99.90
28947;DHT22;16052;50.930;5.326;2022-07-23T13:25:49;26.50;99.90
28947;DHT22;16052;50.930;5.326;2022-07-23T13:28:16;26.60;99.90
28947;DHT22;16052;50.930;5.326;2022-07-23T13:30:43;26.60;99.90
28947;DHT22;16052;50.930;5.326;2022-07-23T13:33:09;26.60;99.90
28947;DHT22;16052;50.930;5.326;2022-07-23T13:35:36;26.60;99.90
28947;DHT22;16052;50.930;5.326;2022-07-23T13:38:03;26.50;99.90
28947;DHT22;16052;50.930;5.326;2022-07-23T13:40:29;26.40;99.90
28947;DHT22;16052;50.930;5.326;2022-07-23T13:42:55;26.60;1.00
28947;DHT22;16052;50.930;5.326;2022-07-23T13:45:21;26.80;99.90
28947;DHT22;16052;50.930;5.326;2022-07-23T13:47:46;27.00;99.90
28947;DHT22;16052;50.930;5.326;2022-07-23T13:50:12;27.20;99.90
28947;DHT22;16052;50.930;5.326;2022-07-23T13:52:38;27.40;99.90
28947;DHT22;16052;50.930;5.326;2022-07-23T13:55:05;27.50;99.90
28947;DHT22;16052;50.930;5.326;2022-07-23T13:57:31;27.60;99.90
28947;DHT22;16052;50.930;5.326;2022-07-23T13:59:57;27.70;99.90
28947;DHT22;16052;50.930;5.326;2022-07-23T14:02:23;28.00;99.90
28947;DHT22;16052;50.930;5.326;2022-07-23T14:04:49;28.20;99.90
28947;DHT22;16052;50.930;5.326;2022-07-23T14:07:16;28.30;99.90
28947;DHT22;16052;50.930;5.326;2022-07-23T14:09:42;28.20;99.90
28947;DHT22;16052;50.930;5.326;2022-07-23T14:12:08;27.90;99.90
28947;DHT22;16052;50.930;5.326;2022-07-23T14:14:34;27.70;99.90
28947;DHT22;16052;50.930;5.326;2022-07-23T14:16:59;27.70;99.90
28947;DHT22;16052;50.930;5.326;2022-07-23T14:19:25;27.60;99.90
28947;DHT22;16052;50.930;5.326;2022-07-23T14:21:51;27.80;99.90
28947;DHT22;16052;50.930;5.326;2022-07-23T14:24:16;28.10;99.90
28947;DHT22;16052;50.930;5.326;2022-07-23T14:26:42;28.40;99.90
28947;DHT22;16052;50.930;5.326;2022-07-23T14:29:08;28.40;99.90
28947;DHT22;16052;50.930;5.326;2022-07-23T14:31:34;27.80;99.90
28947;DHT22;16052;50.930;5.326;2022-07-23T14:34:01;28.00;99.90
28947;DHT22;16052;50.930;5.326;2022-07-23T14:36:26;28.00;99.90
28947;DHT22;16052;50.930;5.326;2022-07-23T14:38:52;28.00;99.90
28947;DHT22;16052;50.930;5.326;2022-07-23T14:41:18;28.00;99.90
28947;DHT22;16052;50.930;5.326;2022-07-23T14:43:44;27.90;99.90
28947;DHT22;16052;50.930;5.326;2022-07-23T14:46:10;27.90;99.90
28947;DHT22;16052;50.930;5.326;2022-07-23T14:48:36;27.80;99.90
28947;DHT22;16052;50.930;5.326;2022-07-23T14:51:02;27.80;99.90
28947;DHT22;16052;50.930;5.326;2022-07-23T14:53:29;27.80;99.90
28947;DHT22;16052;50.930;5.326;2022-07-23T14:55:54;27.80;99.90
28947;DHT22;16052;50.930;5.326;2022-07-23T14:58:22;27.60;99.90
28947;DHT22;16052;50.930;5.326;2022-07-23T15:00:48;27.60;99.90
28947;DHT22;16052;50.930;5.326;2022-07-23T15:03:14;27.70;99.90
28947;DHT22;16052;50.930;5.326;2022-07-23T15:05:40;27.70;99.90
28947;DHT22;16052;50.930;5.326;2022-07-23T15:08:06;27.90;99.90
28947;DHT22;16052;50.930;5.326;2022-07-23T15:10:32;28.10;99.90
28947;DHT22;16052;50.930;5.326;2022-07-23T15:12:57;28.20;99.90
28947;DHT22;16052;50.930;5.326;2022-07-23T15:15:23;28.10;99.90
28947;DHT22;16052;50.930;5.326;2022-07-23T15:17:49;28.10;99.90
28947;DHT22;16052;50.930;5.326;2022-07-23T15:20:14;28.10;99.90
28947;DHT22;16052;50.930;5.326;2022-07-23T15:22:40;28.00;99.90
28947;DHT22;16052;50.930;5.326;2022-07-23T15:25:06;28.00;99.90
28947;DHT22;16052;50.930;5.326;2022-07-23T15:27:32;28.10;99.90
28947;DHT22;16052;50.930;5.326;2022-07-23T15:29:58;28.10;99.90
28947;DHT22;16052;50.930;5.326;2022-07-23T15:32:23;28.20;99.90
28947;DHT22;16052;50.930;5.326;2022-07-23T15:34:54;28.20;99.90
28947;DHT22;16052;50.930;5.326;2022-07-23T15:37:20;28.20;99.90
28947;DHT22;16052;50.930;5.326;2022-07-23T15:39:46;28.20;99.90
28947;DHT22;16052;50.930;5.326;2022-07-23T15:42:11;28.40;99.90
28947;DHT22;16052;50.930;5.326;2022-07-23T15:44:37;28.40;99.90
28947;DHT22;16052;50.930;5.326;2022-07-23T15:47:02;28.40;63.30
28947;DHT22;16052;50.930;5.326;2022-07-23T15:49:28;28.30;99.90
28947;DHT22;16052;50.930;5.326;2022-07-23T15:51:54;28.20;99.90
28947;DHT22;16052;50.930;5.326;2022-07-23T15:54:20;28.10;99.90
28947;DHT22;16052;50.930;5.326;2022-07-23T15:56:46;28.10;99.90
28947;DHT22;16052;50.930;5.326;2022-07-23T15:59:12;28.00;99.90
28947;DHT22;16052;50.930;5.326;2022-07-23T16:01:38;27.90;99.90
28947;DHT22;16052;50.930;5.326;2022-07-23T16:04:04;28.00;99.90
28947;DHT22;16052;50.930;5.326;2022-07-23T16:06:32;28.10;99.90
28947;DHT22;16052;50.930;5.326;2022-07-23T16:08:58;28.30;99.90
28947;DHT22;16052;50.930;5.326;2022-07-23T16:11:25;28.50;99.90
28947;DHT22;16052;50.930;5.326;2022-07-23T16:13:51;28.80;99.90
28947;DHT22;16052;50.930;5.326;2022-07-23T16:16:16;28.90;99.90
28947;DHT22;16052;50.930;5.326;2022-07-23T16:18:42;29.10;99.90
28947;DHT22;16052;50.930;5.326;2022-07-23T16:21:08;29.30;99.90
28947;DHT22;16052;50.930;5.326;2022-07-23T16:23:34;29.40;17.90